Nobleford, Canada
Current Conditions -  °F | °C
As of 12:00 PM on Monday 20 Oct 2014 (Local Time) from CYQL Reporting Station
Few Clouds Few Clouds  
Wind Chill: 75°   Ceiling: Unl
Heat Index: 75°   Visibility: 40mi
Dew Point: 32°   Wind: 22mph
Humidity: 21%   Direction: 200°SSW
Pressure: 29.71"   Gusts: 29mph
Location:  49.88°N, 113.05°W
Report Text: CYQL 201800Z 20019G25KT 40SM FEW140 24/00 A2971 RMK AC1 SLP058 DENSITY ALT 4900FT
Loading
Personal Weather Stations






























Interactive Weather Map
Tropical Storm Tracking
New forecast layout! Learn more

10-Day Weather Forecast

Advertisements
Track Severe Weather on mobile